Time;durP1;ratioP1;P1;durP2;ratioP2;P2;SDS_P1;SDS_P2;PMS_P1;PMS_P2;Temp;Humidity;BMP_temperature;BMP_pressure;BME280_temperature;BME280_humidity;BME280_pressure;Samples;Min_cycle;Max_cycle;Signal;HPM_P1;HPM_P2
2022/01/08 00:00:15;;;;;;;;;0.00;0.00;;;;;21.50;37.02;101095.19;5058898;28;50978;-50
2022/01/08 00:02:42;;;;;;;;;0.00;0.00;;;;;21.53;36.90;101100.22;5069102;28;51059;-51
2022/01/08 00:05:08;;;;;;;;;0.00;0.00;;;;;21.55;36.97;101100.84;5069558;28;51192;-52
2022/01/08 00:07:34;;;;;;;;;0.00;0.00;;;;;21.58;36.87;101104.03;5064812;28;51233;-50
2022/01/08 00:09:59;;;;;;;;;0.75;0.75;;;;;21.58;37.12;101108.69;5062120;28;51223;-51
2022/01/08 00:12:25;;;;;;;;;0.00;0.00;;;;;21.56;37.38;101119.06;5064793;28;51023;-51
2022/01/08 00:14:50;;;;;;;;;0.50;0.25;;;;;21.54;37.28;101129.47;5064233;28;51166;-50
2022/01/08 00:17:16;;;;;;;;;0.00;0.00;;;;;21.51;37.33;101128.03;5062437;28;51358;-51
2022/01/08 00:19:41;;;;;;;;;1.75;0.00;;;;;21.46;36.87;101129.75;5062797;28;51220;-52
2022/01/08 00:22:08;;;;;;;;;0.00;0.00;;;;;21.45;36.80;101139.94;5057726;28;51257;-51
2022/01/08 00:24:33;;;;;;;;;0.00;0.00;;;;;21.47;37.09;101137.81;5064304;27;51204;-48
2022/01/08 00:26:59;;;;;;;;;1.00;0.00;;;;;21.50;37.11;101131.84;5067238;27;51264;-51
2022/01/08 00:29:24;;;;;;;;;0.00;0.00;;;;;21.53;36.95;101130.56;5063667;28;51251;-51
2022/01/08 00:31:49;;;;;;;;;0.00;0.00;;;;;21.56;36.83;101133.69;5064960;28;51799;-52
2022/01/08 00:34:15;;;;;;;;;0.00;0.00;;;;;21.56;37.19;101144.72;5066085;28;51105;-50
2022/01/08 00:36:40;;;;;;;;;0.00;0.00;;;;;21.55;37.05;101145.78;5061718;28;51017;-50
2022/01/08 00:39:06;;;;;;;;;0.00;0.00;;;;;21.52;37.33;101149.00;5066469;28;51069;-50
2022/01/08 00:41:32;;;;;;;;;1.00;0.00;;;;;21.49;36.55;101149.47;5066440;28;51979;-49
2022/01/08 00:43:57;;;;;;;;;0.00;0.00;;;;;21.46;36.83;101158.16;5072429;28;51001;-48
2022/01/08 00:46:22;;;;;;;;;0.00;0.00;;;;;21.47;36.70;101165.38;5061908;28;51154;-49
2022/01/08 00:48:48;;;;;;;;;0.00;0.00;;;;;21.49;36.83;101160.47;5064819;28;51287;-51
2022/01/08 00:51:13;;;;;;;;;0.00;0.00;;;;;21.54;36.30;101170.81;5066602;28;51708;-49
2022/01/08 00:53:39;;;;;;;;;0.00;0.00;;;;;21.56;36.78;101179.72;5064733;28;50978;-52
2022/01/08 00:56:05;;;;;;;;;0.00;0.00;;;;;21.56;36.92;101176.97;5065054;28;51160;-49
2022/01/08 00:58:30;;;;;;;;;0.50;0.50;;;;;21.54;36.82;101195.63;5066644;27;51272;-49
2022/01/08 01:00:56;;;;;;;;;0.00;0.00;;;;;21.51;36.77;101199.69;5058597;28;51098;-49
2022/01/08 01:03:22;;;;;;;;;0.00;0.00;;;;;21.46;36.61;101199.50;5063281;27;51239;-50
2022/01/08 01:05:47;;;;;;;;;0.00;0.00;;;;;21.44;36.23;101198.88;5066933;28;51704;-51
2022/01/08 01:08:13;;;;;;;;;0.00;0.00;;;;;21.44;36.45;101198.88;5066566;28;51089;-47
2022/01/08 01:10:38;;;;;;;;;0.00;0.00;;;;;21.48;36.22;101202.06;5062850;28;51021;-46
2022/01/08 01:13:04;;;;;;;;;1.00;0.75;;;;;21.51;36.52;101196.94;5062254;28;51245;-53
2022/01/08 01:15:29;;;;;;;;;0.00;0.00;;;;;21.53;35.92;101199.47;5063507;28;51134;-53
2022/01/08 01:17:55;;;;;;;;;0.00;0.00;;;;;21.54;36.02;101201.16;5063686;28;51291;-52
2022/01/08 01:20:21;;;;;;;;;0.00;0.00;;;;;21.54;36.71;101203.91;5060458;28;51973;-50
2022/01/08 01:23:04;;;;;;;;;1.25;0.00;;;;;21.50;36.78;101192.50;5060906;28;52035;-45
2022/01/08 01:25:34;;;;;;;;;0.50;0.00;;;;;21.46;36.55;101201.41;5068881;28;51236;-47
2022/01/08 01:41:48;;;;;;;;;0.00;0.00;;;;;21.51;36.43;101193.34;5062779;28;51451;-48
2022/01/08 01:47:03;;;;;;;;;0.00;0.00;;;;;21.47;36.62;101194.84;5060306;28;51202;-45
2022/01/08 01:49:38;;;;;;;;;0.50;0.00;;;;;21.43;36.32;101194.44;5058313;27;51012;-50
2022/01/08 01:52:05;;;;;;;;;0.00;0.00;;;;;21.40;36.37;101203.16;5063611;28;52479;-50
2022/01/08 01:54:32;;;;;;;;;0.25;0.25;;;;;21.38;36.21;101197.00;5063165;28;51431;-49
2022/01/08 01:57:00;;;;;;;;;0.00;0.00;;;;;21.41;36.18;101204.84;5067972;28;51143;-48
2022/01/08 01:59:27;;;;;;;;;0.00;0.00;;;;;21.44;35.91;101206.28;5065392;28;51171;-50
2022/01/08 02:01:53;;;;;;;;;0.00;0.00;;;;;21.48;35.78;101213.91;5064235;28;51299;-49
2022/01/08 02:04:18;;;;;;;;;0.00;0.00;;;;;21.51;35.87;101207.13;5065686;28;51197;-50
2022/01/08 02:06:44;;;;;;;;;1.75;0.75;;;;;21.50;36.55;101200.75;5068415;28;51082;-52
2022/01/08 02:09:09;;;;;;;;;0.00;0.00;;;;;21.48;36.78;101202.91;5064369;28;51145;-51
2022/01/08 02:11:54;;;;;;;;;0.75;0.00;;;;;21.45;36.62;101196.97;5064439;28;51122;-50
2022/01/08 02:14:20;;;;;;;;;0.00;0.00;;;;;21.41;36.63;101187.44;5065513;27;51404;-49
2022/01/08 02:16:45;;;;;;;;;0.50;0.00;;;;;21.38;37.03;101197.00;5059646;28;51033;-52
2022/01/08 02:19:10;;;;;;;;;0.00;0.00;;;;;21.32;36.50;101201.47;5069429;28;51182;-51
2022/01/08 02:21:36;;;;;;;;;0.00;0.00;;;;;21.29;36.26;101203.84;5070375;28;51066;-51
2022/01/08 02:24:01;;;;;;;;;0.00;0.00;;;;;21.25;36.42;101206.13;5066626;28;51023;-51
2022/01/08 02:26:26;;;;;;;;;1.00;1.00;;;;;21.21;36.19;101210.41;5071056;27;51289;-51
2022/01/08 02:28:52;;;;;;;;;0.00;0.00;;;;;21.17;36.54;101211.91;5071983;27;51729;-48
2022/01/08 02:31:22;;;;;;;;;0.00;0.00;;;;;21.13;36.49;101218.06;5065194;28;51024;-51
2022/01/08 02:33:48;;;;;;;;;0.00;0.00;;;;;21.08;37.00;101213.22;5066367;28;51020;-50
2022/01/08 02:36:13;;;;;;;;;0.00;0.00;;;;;21.06;36.52;101217.25;5074355;28;51128;-50
2022/01/08 02:38:39;;;;;;;;;3.00;0.00;;;;;21.01;36.72;101210.47;5060718;28;50991;-49
2022/01/08 02:41:06;;;;;;;;;1.00;0.00;;;;;20.97;37.06;101217.50;5062149;28;51081;-49
2022/01/08 02:43:39;;;;;;;;;0.00;0.00;;;;;20.94;37.17;101219.81;5061507;28;50935;-48
2022/01/08 02:46:05;;;;;;;;;0.00;0.00;;;;;20.90;36.92;101213.06;5066682;28;51094;-50
2022/01/08 02:48:30;;;;;;;;;0.25;0.25;;;;;20.88;37.12;101212.44;5072666;28;51164;-49
2022/01/08 02:50:55;;;;;;;;;0.00;0.00;;;;;20.84;36.73;101214.78;5063040;28;51798;-49
2022/01/08 02:53:21;;;;;;;;;0.00;0.00;;;;;20.80;36.94;101209.91;5060583;28;51131;-49
2022/01/08 02:55:48;;;;;;;;;1.00;1.00;;;;;20.78;36.90;101212.03;5066261;28;51461;-52
2022/01/08 02:58:13;;;;;;;;;0.75;0.75;;;;;20.73;36.80;101215.41;5068527;28;51195;-52
2022/01/08 03:00:39;;;;;;;;;0.75;0.00;;;;;20.70;36.80;101233.22;5063202;28;50884;-48
2022/01/08 03:03:04;;;;;;;;;0.00;0.00;;;;;20.68;36.92;101237.25;5066143;28;51081;-48
2022/01/08 03:05:29;;;;;;;;;1.00;0.00;;;;;20.66;36.69;101226.47;5068474;28;50966;-47
2022/01/08 03:07:55;;;;;;;;;0.00;0.00;;;;;20.64;36.79;101222.22;5066044;28;51092;-49
2022/01/08 03:10:20;;;;;;;;;2.00;0.00;;;;;20.60;37.11;101227.31;5066488;28;51192;-49
2022/01/08 03:12:46;;;;;;;;;0.25;0.00;;;;;20.59;37.13;101228.38;5067274;28;51979;-46
2022/01/08 03:15:15;;;;;;;;;0.00;0.00;;;;;20.56;36.88;101216.94;5069718;28;51156;-48
2022/01/08 03:17:40;;;;;;;;;0.50;0.00;;;;;20.54;36.85;101213.56;5064604;28;51235;-48
2022/01/08 03:20:11;;;;;;;;;0.00;0.00;;;;;20.52;37.07;101216.50;5066195;28;51169;-47
2022/01/08 03:22:38;;;;;;;;;1.75;1.00;;;;;20.49;37.23;101213.34;5067731;27;51395;-50
2022/01/08 03:25:05;;;;;;;;;1.00;1.00;;;;;20.47;37.09;101210.81;5069393;28;52006;-46
2022/01/08 03:27:30;;;;;;;;;0.00;0.00;;;;;20.45;37.06;101204.69;5067281;27;51478;-48
2022/01/08 03:29:56;;;;;;;;;0.50;0.50;;;;;20.43;36.83;101206.81;5070033;28;51108;-47
2022/01/08 03:32:22;;;;;;;;;0.00;0.00;;;;;20.40;37.20;101194.25;5068303;28;51110;-47
2022/01/08 03:34:47;;;;;;;;;0.00;0.00;;;;;20.39;36.86;101194.50;5059634;28;51414;-46
2022/01/08 03:37:13;;;;;;;;;1.50;0.00;;;;;20.37;36.93;101202.13;5062930;28;51036;-48
2022/01/08 03:39:38;;;;;;;;;0.00;0.00;;;;;20.36;36.95;101200.44;5065311;28;51420;-48
2022/01/08 03:42:04;;;;;;;;;1.00;0.00;;;;;20.33;36.94;101201.69;5058772;28;51217;-46
2022/01/08 03:44:30;;;;;;;;;0.75;0.00;;;;;20.32;36.83;101204.63;5065875;28;51139;-50
2022/01/08 03:47:10;;;;;;;;;0.00;0.00;;;;;20.30;37.01;101212.25;5064905;28;50983;-47
2022/01/08 03:49:36;;;;;;;;;0.00;0.00;;;;;20.27;37.30;101216.28;5067019;28;51729;-48
2022/01/08 03:52:01;;;;;;;;;0.00;0.00;;;;;20.26;37.19;101222.00;5064613;28;51247;-50
2022/01/08 03:54:27;;;;;;;;;0.75;0.75;;;;;20.25;37.05;101220.31;5067653;28;51197;-48
2022/01/08 03:56:52;;;;;;;;;0.00;0.00;;;;;20.22;36.99;101218.84;5069293;28;50966;-48
2022/01/08 03:59:17;;;;;;;;;0.00;0.00;;;;;20.19;37.11;101205.50;5065148;28;51007;-46
2022/01/08 04:01:43;;;;;;;;;0.00;0.00;;;;;20.18;36.94;101210.16;5058478;28;51190;-50
2022/01/08 04:04:08;;;;;;;;;1.75;0.00;;;;;20.17;37.17;101213.97;5065888;28;51167;-48
2022/01/08 04:06:33;;;;;;;;;0.00;0.00;;;;;20.15;37.18;101202.34;5067636;28;51215;-47
2022/01/08 04:08:59;;;;;;;;;0.50;0.00;;;;;20.14;36.98;101186.03;5065704;28;51813;-46
2022/01/08 04:11:27;;;;;;;;;0.50;0.50;;;;;20.13;37.12;101206.34;5068286;28;51116;-48
2022/01/08 04:13:54;;;;;;;;;0.00;0.00;;;;;20.11;37.11;101214.81;5064309;28;51158;-51
2022/01/08 04:16:27;;;;;;;;;1.00;1.00;;;;;20.10;37.41;101221.34;5071620;28;51269;-51
2022/01/08 04:18:52;;;;;;;;;0.00;0.00;;;;;20.08;37.08;101220.72;5067441;28;52838;-50
2022/01/08 04:24:09;;;;;;;;;0.00;0.00;;;;;20.06;37.12;101222.00;5064830;28;51042;-53
2022/01/08 04:26:35;;;;;;;;;0.00;0.00;;;;;20.04;37.27;101208.47;5067062;27;51145;-51
2022/01/08 04:29:00;;;;;;;;;0.00;0.00;;;;;20.03;37.36;101212.28;5067290;28;52019;-52
2022/01/08 04:31:26;;;;;;;;;0.75;0.00;;;;;20.02;37.41;101209.75;5067347;27;50950;-51
2022/01/08 04:33:53;;;;;;;;;0.00;0.00;;;;;20.01;37.23;101208.03;5073538;28;51102;-49
2022/01/08 04:36:19;;;;;;;;;0.50;0.00;;;;;19.99;37.24;101197.22;5064739;28;51295;-51
2022/01/08 04:38:44;;;;;;;;;0.00;0.00;;;;;19.98;37.44;101201.03;5064304;28;51018;-51
2022/01/08 04:41:10;;;;;;;;;0.00;0.00;;;;;19.97;37.22;101207.59;5064588;28;51102;-48
2022/01/08 04:43:37;;;;;;;;;0.00;0.00;;;;;19.96;37.25;101211.41;5068459;28;51010;-50
2022/01/08 04:46:04;;;;;;;;;0.00;0.00;;;;;19.95;37.27;101204.22;5066913;28;51306;-48
2022/01/08 04:48:29;;;;;;;;;0.00;0.00;;;;;19.93;37.44;101206.34;5067163;27;51955;-52
2022/01/08 04:50:55;;;;;;;;;0.00;0.00;;;;;19.92;37.20;101203.81;5062178;28;51546;-51
2022/01/08 04:53:20;;;;;;;;;0.00;0.00;;;;;19.90;37.25;101206.75;5061966;28;50984;-46
2022/01/08 04:55:45;;;;;;;;;0.50;0.00;;;;;19.88;37.28;101212.44;5057247;28;51184;-48
2022/01/08 04:58:11;;;;;;;;;1.00;0.00;;;;;19.88;37.28;101228.09;5059677;28;51934;-48
2022/01/08 05:00:37;;;;;;;;;0.00;0.00;;;;;19.88;37.20;101231.69;5072897;27;51185;-47
2022/01/08 05:03:02;;;;;;;;;0.00;0.00;;;;;19.86;37.52;101238.47;5060378;28;51036;-51
2022/01/08 05:05:28;;;;;;;;;0.00;0.00;;;;;19.84;37.37;101235.94;5075179;28;51146;-46
2022/01/08 05:07:54;;;;;;;;;0.00;0.00;;;;;19.84;37.52;101235.09;5067694;28;51900;-48
2022/01/08 05:10:19;;;;;;;;;0.00;0.00;;;;;19.83;37.57;101238.91;5064435;28;51056;-51
2022/01/08 05:12:45;;;;;;;;;0.00;0.00;;;;;19.82;37.48;101231.72;5059124;28;51827;-48
2022/01/08 05:15:10;;;;;;;;;0.00;0.00;;;;;19.80;37.34;101240.16;5064891;28;51293;-49
2022/01/08 05:17:38;;;;;;;;;0.00;0.00;;;;;19.80;37.30;101233.78;5072466;27;51155;-52
2022/01/08 05:20:07;;;;;;;;;0.00;0.00;;;;;19.79;37.29;101221.94;5066819;28;51214;-53
2022/01/08 05:22:52;;;;;;;;;0.00;0.00;;;;;19.77;37.50;101218.56;5065819;28;51112;-49
2022/01/08 05:25:19;;;;;;;;;1.75;0.00;;;;;19.76;37.63;101219.63;5062334;28;51309;-48
2022/01/08 05:27:46;;;;;;;;;0.00;0.00;;;;;19.75;37.38;101219.84;5064067;27;51040;-48
2022/01/08 05:30:14;;;;;;;;;0.00;0.00;;;;;19.74;37.42;101230.00;5062720;28;51237;-48
2022/01/08 05:32:40;;;;;;;;;0.00;0.00;;;;;19.74;37.73;101229.16;5062569;28;51247;-47
2022/01/08 05:35:06;;;;;;;;;0.00;0.00;;;;;19.72;37.61;101220.28;5068350;28;51133;-48
2022/01/08 05:37:31;;;;;;;;;0.00;0.00;;;;;19.72;37.70;101212.03;5071174;28;51008;-52
2022/01/08 05:39:57;;;;;;;;;0.00;0.00;;;;;19.71;37.52;101207.59;5062429;28;51317;-49
2022/01/08 05:42:22;;;;;;;;;0.75;0.75;;;;;19.69;37.57;101198.69;5071329;28;51064;-50
2022/01/08 05:44:48;;;;;;;;;0.00;0.00;;;;;19.68;37.69;101203.31;5056977;28;51543;-51
2022/01/08 05:47:14;;;;;;;;;0.00;0.00;;;;;19.68;37.57;101199.72;5056158;28;51640;-49
2022/01/08 05:49:40;;;;;;;;;0.00;0.00;;;;;19.67;37.76;101195.28;5070686;28;51072;-51
2022/01/08 05:52:07;;;;;;;;;0.00;0.00;;;;;19.66;37.31;101196.34;5076325;28;51167;-48
2022/01/08 05:54:32;;;;;;;;;0.00;0.00;;;;;19.64;37.48;101190.22;5069319;28;51125;-51
2022/01/08 05:56:58;;;;;;;;;0.00;0.00;;;;;19.63;37.75;101186.63;5059641;28;51967;-53
2022/01/08 05:59:26;;;;;;;;;1.00;0.00;;;;;19.62;37.56;101179.44;5066874;28;51041;-50
2022/01/08 06:01:52;;;;;;;;;0.25;0.25;;;;;19.62;37.89;101187.69;5073560;28;51184;-50
2022/01/08 06:04:17;;;;;;;;;0.00;0.00;;;;;19.61;37.65;101188.75;5069577;28;51480;-50
2022/01/08 06:06:44;;;;;;;;;0.25;0.25;;;;;19.61;37.77;101188.75;5070554;28;51652;-46
2022/01/08 06:09:09;;;;;;;;;0.00;0.00;;;;;19.59;37.48;101199.06;5066086;28;51207;-46
2022/01/08 06:11:35;;;;;;;;;0.00;0.00;;;;;19.58;37.72;101209.22;5067396;28;51028;-49
2022/01/08 06:14:02;;;;;;;;;0.25;0.25;;;;;19.57;37.83;101207.53;5059159;28;51047;-50
2022/01/08 06:16:33;;;;;;;;;0.00;0.00;;;;;19.56;37.94;101211.34;5062046;28;51015;-49
2022/01/08 06:18:58;;;;;;;;;0.00;0.00;;;;;19.56;37.63;101205.00;5076496;28;51290;-49
2022/01/08 06:21:24;;;;;;;;;0.00;0.00;;;;;19.56;37.57;101202.25;5063531;28;51052;-51
2022/01/08 06:23:49;;;;;;;;;0.00;0.00;;;;;19.55;37.72;101197.78;5061998;28;51046;-53
2022/01/08 06:26:14;;;;;;;;;0.50;0.00;;;;;19.54;37.66;101187.84;5069383;27;51806;-50
2022/01/08 06:28:40;;;;;;;;;0.00;0.00;;;;;19.52;37.79;101170.72;5071842;28;51425;-46
2022/01/08 06:31:05;;;;;;;;;0.50;0.50;;;;;19.53;37.94;101175.16;5070058;28;51149;-49
2022/01/08 06:33:31;;;;;;;;;0.00;0.00;;;;;19.53;37.72;101172.41;5067488;28;51052;-51
2022/01/08 06:35:56;;;;;;;;;0.00;0.00;;;;;19.51;37.82;101180.88;5063349;28;51804;-50
2022/01/08 06:38:21;;;;;;;;;0.00;0.00;;;;;19.50;38.00;101195.66;5067717;28;51181;-49
2022/01/08 06:40:47;;;;;;;;;0.50;0.00;;;;;19.49;37.85;101193.97;5072668;28;51465;-53
2022/01/08 06:43:12;;;;;;;;;0.00;0.00;;;;;19.49;37.72;101182.13;5069178;28;51163;-50
2022/01/08 06:45:38;;;;;;;;;0.00;0.00;;;;;19.48;37.81;101175.75;5068813;28;52726;-51
2022/01/08 06:48:03;;;;;;;;;0.00;0.00;;;;;19.48;38.01;101170.28;5063666;28;51165;-51
2022/01/08 06:50:29;;;;;;;;;0.00;0.00;;;;;19.48;37.67;101166.69;5068696;28;51358;-49
2022/01/08 06:52:56;;;;;;;;;0.00;0.00;;;;;19.47;37.91;101168.59;5070579;28;50952;-47
2022/01/08 06:55:22;;;;;;;;;0.00;0.00;;;;;19.47;38.06;101173.22;5067097;28;52056;-48
2022/01/08 06:57:47;;;;;;;;;0.00;0.00;;;;;19.46;38.18;101166.88;5061495;28;51181;-49
2022/01/08 07:00:13;;;;;;;;;0.00;0.00;;;;;19.45;37.77;101167.94;5073682;28;51221;-49
2022/01/08 07:02:38;;;;;;;;;0.00;0.00;;;;;19.45;37.99;101169.84;5062701;28;51142;-50
2022/01/08 07:05:04;;;;;;;;;0.00;0.00;;;;;19.44;37.83;101176.41;5067219;28;51690;-53
2022/01/08 07:07:29;;;;;;;;;0.00;0.00;;;;;19.43;38.09;101166.47;5066398;28;51120;-49
2022/01/08 07:09:55;;;;;;;;;0.00;0.00;;;;;19.43;38.12;101166.47;5064086;28;51032;-50
2022/01/08 07:12:20;;;;;;;;;0.00;0.00;;;;;19.42;37.79;101154.63;5066203;28;51144;-51
2022/01/08 07:14:45;;;;;;;;;0.00;0.00;;;;;19.42;38.04;101156.53;5066791;28;51227;-47
2022/01/08 07:17:11;;;;;;;;;2.00;0.00;;;;;19.41;37.59;101154.84;5065812;28;51100;-48
2022/01/08 07:19:36;;;;;;;;;1.00;1.00;;;;;19.40;38.05;101154.00;5071874;28;51197;-52
2022/01/08 07:22:01;;;;;;;;;0.25;0.00;;;;;19.39;37.96;101149.56;5063589;28;51478;-51
2022/01/08 07:24:27;;;;;;;;;0.50;0.00;;;;;19.40;37.72;101147.66;5062835;28;51782;-51
2022/01/08 07:26:52;;;;;;;;;0.00;0.00;;;;;19.38;37.96;101139.59;5068663;27;51280;-50
2022/01/08 07:29:17;;;;;;;;;0.75;0.00;;;;;19.38;37.86;101139.59;5060069;28;51029;-52
2022/01/08 07:31:43;;;;;;;;;0.00;0.00;;;;;19.37;37.74;101126.94;5074570;28;50937;-51
2022/01/08 07:34:08;;;;;;;;;0.00;0.00;;;;;19.36;37.76;101130.72;5061531;28;51608;-50
2022/01/08 07:36:33;;;;;;;;;0.50;0.50;;;;;19.36;37.99;101129.88;5066371;28;51216;-53
2022/01/08 07:38:59;;;;;;;;;0.50;0.50;;;;;19.34;37.85;101119.09;5066332;28;51860;-52
2022/01/08 07:41:24;;;;;;;;;0.50;0.00;;;;;19.35;37.78;101125.44;5061133;27;51119;-48
2022/01/08 07:43:50;;;;;;;;;1.25;0.00;;;;;19.33;38.11;101122.91;5061474;28;51655;-49
2022/01/08 07:46:15;;;;;;;;;0.00;0.00;;;;;19.33;38.02;101123.75;5069427;28;50976;-49
2022/01/08 07:48:41;;;;;;;;;0.00;0.00;;;;;19.32;37.91;101122.06;5058894;28;51212;-50
2022/01/08 07:51:06;;;;;;;;;1.00;1.00;;;;;19.32;38.24;101118.47;5061105;28;51211;-51
2022/01/08 07:53:32;;;;;;;;;0.00;0.00;;;;;19.32;37.82;101123.97;5061648;28;51211;-50
2022/01/08 07:55:58;;;;;;;;;0.00;0.00;;;;;19.31;38.12;101114.03;5066811;28;51072;-49
2022/01/08 07:58:23;;;;;;;;;1.25;1.25;;;;;19.31;37.91;101109.41;5068771;28;51198;-53
2022/01/08 08:00:49;;;;;;;;;0.00;0.00;;;;;19.30;37.96;101110.44;5060440;28;51322;-50
2022/01/08 08:03:15;;;;;;;;;1.00;1.00;;;;;19.29;37.92;101108.75;5069907;28;51009;-52
2022/01/08 08:05:41;;;;;;;;;0.50;0.00;;;;;19.29;38.13;101106.00;5062273;28;51147;-47
2022/01/08 08:08:06;;;;;;;;;1.00;1.00;;;;;19.28;38.03;101098.00;5062871;27;51153;-52
2022/01/08 08:10:32;;;;;;;;;0.00;0.00;;;;;19.27;38.19;101093.53;5067423;28;51366;-51
2022/01/08 08:12:58;;;;;;;;;0.00;0.00;;;;;19.27;38.06;101085.28;5065599;28;52845;-49
2022/01/08 08:15:23;;;;;;;;;0.00;0.00;;;;;19.28;38.13;101103.47;5064868;28;51175;-53
2022/01/08 08:17:49;;;;;;;;;0.00;0.00;;;;;19.26;38.06;101087.19;5060641;28;51091;-49
2022/01/08 08:20:15;;;;;;;;;0.00;0.00;;;;;19.25;37.94;101080.00;5076119;27;51157;-50
2022/01/08 08:22:41;;;;;;;;;0.00;0.00;;;;;19.25;38.23;101073.66;5062655;28;51813;-50
2022/01/08 08:25:12;;;;;;;;;0.00;0.00;;;;;19.23;38.33;101073.88;5064393;28;51096;-49
2022/01/08 08:27:39;;;;;;;;;0.00;0.00;;;;;19.23;38.06;101079.38;5056665;27;51136;-48
2022/01/08 08:30:06;;;;;;;;;1.00;1.00;;;;;19.21;38.17;101081.47;5059659;28;51151;-49
2022/01/08 08:32:31;;;;;;;;;2.25;2.25;;;;;19.22;37.98;101076.84;5056914;28;51958;-51
2022/01/08 08:34:57;;;;;;;;;4.75;1.00;;;;;19.18;36.99;101057.19;5059300;28;52296;-51
2022/01/08 08:37:22;;;;;;;;;1.75;1.00;;;;;19.14;37.47;101055.91;5069837;28;51113;-51
2022/01/08 08:39:48;;;;;;;;;2.00;1.25;;;;;19.14;37.08;101052.31;5057360;28;51348;-50
2022/01/08 08:42:13;;;;;;;;;1.00;1.00;;;;;19.19;37.29;101055.28;5066089;28;51076;-48
2022/01/08 08:44:38;;;;;;;;;2.75;1.75;;;;;19.27;37.35;101046.81;5070806;27;51207;-51
2022/01/08 08:47:04;;;;;;;;;2.00;1.00;;;;;19.37;37.18;101043.66;5060891;28;51013;-52
2022/01/08 08:49:30;;;;;;;;;1.00;1.00;;;;;19.45;37.53;101037.97;5069572;28;51633;-52
2022/01/08 08:51:55;;;;;;;;;2.00;1.75;;;;;19.55;37.25;101036.53;5062151;28;51157;-51
2022/01/08 08:54:21;;;;;;;;;1.00;0.00;;;;;19.65;37.18;101036.09;5055792;27;51205;-62
2022/01/08 08:56:46;;;;;;;;;3.50;1.50;;;;;19.75;37.52;101028.28;5055946;28;51162;-48
2022/01/08 08:59:11;;;;;;;;;2.50;1.75;;;;;19.82;37.29;101037.38;5057490;28;51287;-49
2022/01/08 09:01:38;;;;;;;;;1.00;1.00;;;;;19.91;37.77;101028.91;5053509;28;51224;-51
2022/01/08 09:04:04;;;;;;;;;2.75;2.00;;;;;19.98;37.68;101027.81;5059190;28;51840;-52
2022/01/08 09:06:30;;;;;;;;;1.00;1.00;;;;;20.05;37.80;101028.66;5064987;28;51225;-50
2022/01/08 09:08:55;;;;;;;;;2.00;2.00;;;;;20.13;38.32;101027.59;5067405;27;52039;-52
2022/01/08 09:11:21;;;;;;;;;2.75;1.25;;;;;20.22;38.06;101022.66;5062806;28;51783;-52
2022/01/08 09:13:46;;;;;;;;;1.50;1.00;;;;;20.30;38.61;101014.19;5068305;28;51034;-50
2022/01/08 09:16:12;;;;;;;;;2.00;0.75;;;;;20.38;38.26;101011.19;5056815;28;51237;-53
2022/01/08 09:18:39;;;;;;;;;3.00;1.75;;;;;20.45;38.20;101007.41;5063605;28;51169;-49
2022/01/08 09:21:05;;;;;;;;;1.00;1.00;;;;;20.54;38.52;100999.75;5059081;27;51132;-51
2022/01/08 09:23:31;;;;;;;;;4.25;1.50;;;;;20.61;37.79;100995.03;5067966;28;51137;-52
2022/01/08 09:25:57;;;;;;;;;1.00;1.00;;;;;20.68;38.31;100989.50;5064967;27;51619;-53
2022/01/08 09:28:23;;;;;;;;;3.00;1.50;;;;;20.73;38.27;100986.91;5060863;27;51153;-52
2022/01/08 09:30:48;;;;;;;;;1.75;1.00;;;;;20.72;38.70;100988.84;5058922;28;51793;-48
2022/01/08 09:33:13;;;;;;;;;1.75;1.75;;;;;20.73;38.83;100997.94;5068420;27;51152;-51
2022/01/08 09:35:39;;;;;;;;;2.00;1.00;;;;;20.73;39.08;100993.28;5057105;27;51407;-48
2022/01/08 09:38:04;;;;;;;;;0.50;0.00;;;;;20.73;38.65;100985.00;5058398;27;51147;-48
2022/01/08 09:40:30;;;;;;;;;2.00;0.25;;;;;20.77;38.75;100993.69;5060675;27;51946;-51
2022/01/08 09:42:55;;;;;;;;;2.00;2.00;;;;;20.82;38.22;100976.50;5060211;28;51267;-49
2022/01/08 09:45:21;;;;;;;;;2.75;2.00;;;;;20.87;38.53;100974.78;5059428;28;51175;-51
2022/01/08 09:47:46;;;;;;;;;2.00;2.00;;;;;20.95;38.52;100968.19;5060219;28;51318;-61
2022/01/08 09:50:12;;;;;;;;;5.00;2.00;;;;;21.02;38.20;100960.69;5058282;28;52352;-55
2022/01/08 09:52:38;;;;;;;;;3.50;2.00;;;;;21.09;38.36;100958.75;5059787;28;51116;-52
2022/01/08 09:55:05;;;;;;;;;3.00;2.00;;;;;21.14;38.50;100947.03;5059194;28;51258;-54
2022/01/08 09:57:31;;;;;;;;;3.25;3.25;;;;;21.15;38.71;100934.94;5063715;28;51020;-52
2022/01/08 09:59:57;;;;;;;;;2.75;2.00;;;;;21.14;38.10;100931.34;5063466;28;51375;-50
2022/01/08 10:02:23;;;;;;;;;2.50;1.00;;;;;21.13;38.80;100937.09;5057416;28;51081;-53
2022/01/08 10:04:50;;;;;;;;;6.75;3.50;;;;;21.09;38.26;100935.84;5069907;28;51106;-52
2022/01/08 10:07:25;;;;;;;;;4.25;4.00;;;;;21.04;38.69;100915.31;5058077;28;51113;-49
2022/01/08 10:10:00;;;;;;;;;5.25;3.25;;;;;20.99;38.61;100904.16;5055336;28;52108;-51
2022/01/08 10:12:51;;;;;;;;;6.00;5.00;;;;;20.94;38.33;100914.13;5062053;28;51229;-49
2022/01/08 10:18:33;;;;;;;;;5.75;4.25;;;;;20.82;38.65;100897.50;5059575;27;51228;-51
2022/01/08 10:21:13;;;;;;;;;8.25;5.25;;;;;20.76;38.79;100903.91;5062513;28;50887;-53
2022/01/08 10:23:43;;;;;;;;;7.50;5.00;;;;;20.70;38.94;100911.13;5062648;28;51487;-49
2022/01/08 10:26:10;;;;;;;;;5.50;5.50;;;;;20.66;38.16;100895.31;5071770;27;51162;-54
2022/01/08 10:28:48;;;;;;;;;4.50;4.00;;;;;20.62;38.36;100891.28;5062043;27;51468;-52
2022/01/08 10:31:16;;;;;;;;;9.00;4.00;;;;;20.56;38.22;100893.03;5066068;28;51778;-52
2022/01/08 10:33:45;;;;;;;;;5.00;3.50;;;;;20.53;38.63;100889.88;5066295;28;51116;-49
2022/01/08 10:36:12;;;;;;;;;8.25;6.00;;;;;20.48;38.58;100874.03;5063785;28;51026;-52
2022/01/08 10:38:38;;;;;;;;;6.00;4.50;;;;;20.45;38.26;100868.97;5067028;27;51159;-51
2022/01/08 10:41:11;;;;;;;;;7.75;4.50;;;;;20.41;38.57;100870.44;5060733;28;51791;-51
2022/01/08 10:43:36;;;;;;;;;5.00;4.00;;;;;20.35;38.65;100854.84;5067448;28;51441;-51
2022/01/08 10:46:09;;;;;;;;;4.50;4.50;;;;;20.33;38.75;100859.72;5066660;28;51036;-49
2022/01/08 10:48:35;;;;;;;;;7.75;4.50;;;;;20.32;38.84;100852.50;5069439;28;50953;-50
2022/01/08 10:51:15;;;;;;;;;6.00;6.00;;;;;20.36;38.76;100851.00;5065385;28;52098;-50
2022/01/08 10:53:50;;;;;;;;;6.25;5.25;;;;;20.39;38.71;100836.81;5068801;28;51156;-49
2022/01/08 10:56:24;;;;;;;;;9.00;6.75;;;;;20.43;38.70;100832.59;5065159;28;51033;-47
2022/01/08 10:58:52;;;;;;;;;5.50;5.00;;;;;20.48;38.53;100819.00;5068625;28;51369;-48
2022/01/08 11:01:38;;;;;;;;;9.50;7.00;;;;;20.53;38.63;100808.19;5068002;28;52692;-47
2022/01/08 11:04:05;;;;;;;;;13.50;10.50;;;;;20.60;38.99;100808.09;5065345;28;51026;-49
2022/01/08 11:06:30;;;;;;;;;9.00;8.50;;;;;20.73;38.73;100794.22;5073212;28;51108;-47
2022/01/08 11:09:02;;;;;;;;;16.00;12.50;;;;;20.83;38.68;100794.56;5066426;28;51091;-47
2022/01/08 11:11:30;;;;;;;;;19.25;15.50;;;;;20.89;38.51;100779.91;5065789;28;51317;-49
2022/01/08 11:14:07;;;;;;;;;18.50;11.00;;;;;21.06;39.01;100777.41;5065643;28;51042;-43
2022/01/08 11:16:34;;;;;;;;;13.25;12.25;;;;;21.31;38.27;100766.34;5067367;28;51317;-46
2022/01/08 11:19:02;;;;;;;;;17.25;14.00;;;;;21.55;37.71;100761.81;5066140;27;50983;-45
2022/01/08 11:21:30;;;;;;;;;18.50;13.75;;;;;21.66;37.71;100752.75;5065187;28;51894;-56
2022/01/08 11:23:59;;;;;;;;;17.25;12.00;;;;;21.68;37.32;100745.13;5065147;28;51420;-52
2022/01/08 11:26:26;;;;;;;;;18.00;13.00;;;;;21.65;37.75;100742.81;5067552;27;51131;-57
2022/01/08 11:28:58;;;;;;;;;17.75;12.25;;;;;21.62;37.53;100737.78;5065251;28;51275;-59
2022/01/08 11:31:28;;;;;;;;;17.25;14.50;;;;;21.62;37.15;100737.78;5066089;28;51268;-56
2022/01/08 11:33:57;;;;;;;;;17.00;17.00;;;;;21.63;37.61;100727.59;5065922;27;51472;-54
2022/01/08 11:36:24;;;;;;;;;20.25;18.25;;;;;21.64;37.19;100719.09;5067710;28;51229;-55
2022/01/08 11:38:50;;;;;;;;;18.00;15.75;;;;;21.65;37.37;100720.75;5067907;28;51237;-56
2022/01/08 11:41:16;;;;;;;;;15.00;13.25;;;;;21.62;37.23;100712.97;5066071;28;51119;-56
2022/01/08 11:43:42;;;;;;;;;27.50;18.75;;;;;21.57;37.13;100702.66;5073197;28;51423;-56